createdAt,value
2018-11-03T00:00:26.728Z,80.80
2018-11-03T00:04:30.640Z,81.50
2018-11-03T00:08:34.494Z,80.91
2018-11-03T00:12:53.287Z,81.25
2018-11-03T00:16:57.119Z,81.84
2018-11-03T00:21:01.053Z,81.64
2018-11-03T00:25:06.216Z,82.41
2018-11-03T00:29:10.086Z,82.51
2018-11-03T00:33:14.012Z,82.80
2018-11-03T00:37:18.321Z,82.80
2018-11-03T00:41:22.264Z,82.92
2018-11-03T00:45:26.118Z,83.06
2018-11-03T00:49:30.008Z,82.42
2018-11-03T00:53:33.920Z,82.32
2018-11-03T00:57:38.412Z,82.58
2018-11-03T01:01:42.291Z,83.12
2018-11-03T01:05:46.220Z,83.29
2018-11-03T01:09:50.373Z,83.52
2018-11-03T01:13:54.727Z,82.98
2018-11-03T01:17:59.013Z,82.84
2018-11-03T01:22:03.273Z,82.71
2018-11-03T01:26:07.577Z,82.92
2018-11-03T01:30:14.432Z,82.97
2018-11-03T01:34:18.895Z,82.59
2018-11-03T01:38:23.176Z,82.86
2018-11-03T01:42:27.860Z,82.55
2018-11-03T01:46:32.117Z,82.64
2018-11-03T01:50:36.561Z,82.40
2018-11-03T01:54:40.733Z,82.88
2018-11-03T01:58:45.044Z,82.89
2018-11-03T02:02:49.373Z,83.20
2018-11-03T02:06:53.706Z,82.91
2018-11-03T02:10:57.996Z,83.01
2018-11-03T02:15:02.249Z,83.45
2018-11-03T02:19:06.440Z,82.82
2018-11-03T02:23:12.240Z,83.21
2018-11-03T02:27:16.322Z,82.97
2018-11-03T02:31:21.154Z,83.01
2018-11-03T02:35:25.710Z,82.85
2018-11-03T02:39:31.371Z,83.18
2018-11-03T02:43:36.294Z,82.75
2018-11-03T02:47:42.225Z,82.84
2018-11-03T02:51:46.683Z,82.44
2018-11-03T02:55:50.776Z,82.74
2018-11-03T02:59:55.094Z,83.14
2018-11-03T03:03:59.181Z,82.77
2018-11-03T03:08:03.333Z,83.12
2018-11-03T03:12:07.427Z,83.14
2018-11-03T03:16:11.584Z,83.40
2018-11-03T03:20:15.804Z,83.26
2018-11-03T03:24:20.310Z,83.19
2018-11-03T03:28:24.370Z,83.54
2018-11-03T03:32:28.718Z,83.51
2018-11-03T03:36:32.925Z,83.92
2018-11-03T03:40:37.304Z,83.59
2018-11-03T03:44:41.559Z,83.37
2018-11-03T03:48:45.879Z,83.52
2018-11-03T03:52:49.880Z,83.68
2018-11-03T03:56:54.114Z,83.41
2018-11-03T04:00:58.199Z,83.39
2018-11-03T04:05:03.175Z,83.34
2018-11-03T04:09:08.217Z,83.31
2018-11-03T04:13:12.336Z,83.26
2018-11-03T04:17:16.289Z,83.89
2018-11-03T04:21:28.785Z,83.70
2018-11-03T04:25:32.880Z,83.84
2018-11-03T04:29:37.124Z,83.40
2018-11-03T04:33:41.214Z,83.79
2018-11-03T04:37:45.985Z,84.17
2018-11-03T04:41:50.072Z,83.83
2018-11-03T04:45:54.692Z,84.00
2018-11-03T04:49:59.488Z,83.90
2018-11-03T04:54:03.856Z,83.69
2018-11-03T04:58:08.002Z,84.19
2018-11-03T05:02:13.232Z,85.12
2018-11-03T05:06:17.190Z,84.32
2018-11-03T05:10:21.286Z,84.35
2018-11-03T05:14:25.332Z,84.42
2018-11-03T05:18:29.737Z,84.54
2018-11-03T05:22:34.820Z,84.92
2018-11-03T05:26:39.371Z,84.98
2018-11-03T05:30:43.661Z,84.58
2018-11-03T05:34:48.172Z,84.46
2018-11-03T05:38:52.475Z,84.35
2018-11-03T05:42:56.619Z,84.30
2018-11-03T05:47:00.696Z,84.26
2018-11-03T05:51:05.106Z,84.12
2018-11-03T05:55:10.853Z,84.16
2018-11-03T05:59:15.213Z,84.49
2018-11-03T06:03:20.215Z,84.38
2018-11-03T06:07:24.653Z,84.77
2018-11-03T06:11:29.023Z,85.30
2018-11-03T06:15:33.320Z,85.18
2018-11-03T06:19:37.089Z,85.51
2018-11-03T06:23:41.391Z,85.40
2018-11-03T06:27:45.244Z,85.50
2018-11-03T06:31:49.944Z,86.45
2018-11-03T06:35:54.000Z,86.37
2018-11-03T06:39:58.321Z,86.62
2018-11-03T06:44:02.345Z,87.18
2018-11-03T06:48:06.999Z,86.77
2018-11-03T06:52:11.088Z,87.91
2018-11-03T06:56:15.314Z,87.07
2018-11-03T07:00:19.420Z,86.72
2018-11-03T07:04:23.756Z,86.09
2018-11-03T07:08:28.462Z,85.73
2018-11-03T07:12:33.641Z,86.27
2018-11-03T07:16:37.571Z,85.62
2018-11-03T07:20:41.590Z,86.34
2018-11-03T07:24:45.655Z,86.08
2018-11-03T07:28:49.655Z,86.23
2018-11-03T07:32:54.494Z,85.50
2018-11-03T07:36:58.455Z,86.25
2018-11-03T07:41:02.584Z,86.32
2018-11-03T07:45:08.071Z,85.92
2018-11-03T07:49:16.096Z,85.53
2018-11-03T07:53:20.376Z,85.65
2018-11-03T07:57:24.428Z,85.19
2018-11-03T08:01:28.643Z,85.73
2018-11-03T08:05:32.944Z,85.93
2018-11-03T08:09:36.980Z,85.73
2018-11-03T08:13:41.449Z,85.99
2018-11-03T08:17:46.231Z,86.07
2018-11-03T08:21:50.703Z,85.97
2018-11-03T08:25:55.411Z,85.73
2018-11-03T08:29:59.682Z,85.03
2018-11-03T08:34:03.770Z,84.46
2018-11-03T08:38:08.126Z,85.25
2018-11-03T08:42:12.373Z,84.03
2018-11-03T08:46:17.710Z,84.38
2018-11-03T08:50:22.486Z,83.92
2018-11-03T08:54:26.444Z,82.80
2018-11-03T08:58:31.423Z,82.84
2018-11-03T09:02:35.627Z,83.00
2018-11-03T09:06:39.691Z,81.89
2018-11-03T09:10:44.391Z,81.52
2018-11-03T09:14:48.484Z,81.34
2018-11-03T09:18:52.863Z,78.59
2018-11-03T09:22:56.831Z,78.07
2018-11-03T09:27:01.070Z,77.66
2018-11-03T09:31:05.282Z,78.00
2018-11-03T09:35:10.825Z,74.98
2018-11-03T09:39:15.015Z,72.43
2018-11-03T09:43:19.023Z,71.83
2018-11-03T09:47:22.978Z,69.88
2018-11-03T09:51:28.349Z,64.31
2018-11-03T09:55:32.508Z,63.29
2018-11-03T09:59:36.605Z,64.69
2018-11-03T10:03:40.855Z,60.35
2018-11-03T10:07:45.614Z,56.97
2018-11-03T10:11:49.582Z,56.79
2018-11-03T10:15:53.714Z,56.36
2018-11-03T10:19:58.050Z,55.61
2018-11-03T10:24:02.257Z,55.02
2018-11-03T10:28:06.990Z,55.24
2018-11-03T10:32:10.888Z,55.00
2018-11-03T10:36:15.089Z,55.33
2018-11-03T10:40:19.183Z,55.77
2018-11-03T10:44:23.183Z,53.96
2018-11-03T10:48:27.150Z,52.71
2018-11-03T10:52:31.056Z,50.93
2018-11-03T10:56:35.056Z,50.92
2018-11-03T11:00:45.143Z,50.67
2018-11-03T11:04:54.726Z,50.12
2018-11-03T11:09:03.875Z,50.05
2018-11-03T11:13:10.329Z,48.81
2018-11-03T11:17:14.803Z,47.27
2018-11-03T11:21:18.772Z,47.28
2018-11-03T11:25:22.702Z,44.98
2018-11-03T11:29:26.969Z,45.45
2018-11-03T11:33:31.441Z,44.92
2018-11-03T11:37:36.031Z,44.61
2018-11-03T11:41:39.871Z,44.98
2018-11-03T11:45:43.994Z,42.60
2018-11-03T11:49:48.211Z,42.00
2018-11-03T11:53:53.081Z,42.70
2018-11-03T11:57:56.944Z,41.68
2018-11-03T12:02:01.279Z,42.31
2018-11-03T12:06:05.376Z,42.21
2018-11-03T12:10:09.515Z,42.08
2018-11-03T12:14:13.245Z,41.51
2018-11-03T12:18:17.459Z,40.27
2018-11-03T12:22:21.447Z,41.89
2018-11-03T12:26:25.424Z,39.78
2018-11-03T12:30:29.280Z,38.69
2018-11-03T12:34:33.134Z,37.84
2018-11-03T12:38:36.999Z,40.94
2018-11-03T12:42:40.915Z,39.10
2018-11-03T12:46:44.836Z,39.89
2018-11-03T12:50:48.706Z,38.72
2018-11-03T12:54:52.571Z,40.13
2018-11-03T12:58:57.364Z,39.55
2018-11-03T13:03:01.914Z,39.26
2018-11-03T13:07:06.037Z,40.35
2018-11-03T13:11:10.327Z,42.17
2018-11-03T13:15:14.498Z,44.54
2018-11-03T13:19:18.449Z,44.14
2018-11-03T13:23:22.351Z,45.20
2018-11-03T13:27:26.575Z,46.69
2018-11-03T13:31:30.437Z,48.18
2018-11-03T13:35:35.239Z,48.49
2018-11-03T13:39:40.189Z,48.87
2018-11-03T13:43:44.009Z,49.73
2018-11-03T13:47:48.733Z,49.26
2018-11-03T13:51:52.549Z,50.61
2018-11-03T13:55:56.666Z,50.42
2018-11-03T14:00:00.593Z,50.73
2018-11-03T14:04:06.288Z,51.55
2018-11-03T14:08:10.188Z,52.51
2018-11-03T14:12:14.425Z,52.87
2018-11-03T14:16:20.590Z,53.37
2018-11-03T14:20:25.411Z,53.69
2018-11-03T14:24:44.188Z,54.22
2018-11-03T14:28:48.159Z,54.81
2018-11-03T14:32:52.644Z,55.09
2018-11-03T14:36:56.793Z,55.79
2018-11-03T14:41:00.681Z,56.95
2018-11-03T14:45:06.283Z,57.53
2018-11-03T14:49:10.249Z,59.02
2018-11-03T14:53:14.153Z,59.34
2018-11-03T14:57:18.968Z,60.20
2018-11-03T15:01:23.088Z,60.98
2018-11-03T15:05:27.524Z,61.78
2018-11-03T15:09:32.213Z,62.26
2018-11-03T15:13:36.161Z,63.21
2018-11-03T15:17:40.200Z,63.07
2018-11-03T15:21:44.093Z,63.45
2018-11-03T15:25:48.259Z,63.92
2018-11-03T15:29:52.168Z,64.46
2018-11-03T15:33:56.065Z,64.87
2018-11-03T15:37:59.944Z,65.10
2018-11-03T15:42:05.315Z,65.20
2018-11-03T15:46:09.728Z,65.72
2018-11-03T15:50:14.873Z,65.83
2018-11-03T15:54:18.944Z,65.94
2018-11-03T15:58:23.159Z,65.89
2018-11-03T16:02:27.030Z,66.68
2018-11-03T16:06:30.905Z,66.84
2018-11-03T16:10:34.829Z,66.83
2018-11-03T16:14:39.044Z,67.03
2018-11-03T16:18:42.962Z,67.78
2018-11-03T16:22:47.778Z,68.50
2018-11-03T16:26:51.712Z,69.32
2018-11-03T16:30:55.616Z,69.57
2018-11-03T16:35:00.106Z,70.04
2018-11-03T16:39:07.096Z,70.62
2018-11-03T16:43:10.983Z,70.53
2018-11-03T16:47:15.139Z,70.88
2018-11-03T16:51:19.104Z,71.24
2018-11-03T16:55:23.063Z,71.43
2018-11-03T16:59:27.018Z,71.72
2018-11-03T17:03:31.550Z,71.83
2018-11-03T17:07:37.194Z,71.80
2018-11-03T17:11:41.041Z,72.20
2018-11-03T17:15:44.961Z,72.17
2018-11-03T17:19:48.894Z,72.20
2018-11-03T17:23:53.076Z,72.45
2018-11-03T17:27:57.026Z,72.66
2018-11-03T17:32:00.929Z,72.86
2018-11-03T17:36:04.952Z,73.48
2018-11-03T17:40:09.768Z,74.61
2018-11-03T17:44:14.089Z,74.61
2018-11-03T17:48:17.885Z,74.12
2018-11-03T17:52:22.168Z,74.67
2018-11-03T17:56:26.019Z,74.61
2018-11-03T18:00:30.338Z,75.16
2018-11-03T18:04:34.104Z,75.61
2018-11-03T18:08:38.176Z,76.47
2018-11-03T18:12:42.924Z,75.96
2018-11-03T18:16:46.836Z,75.82
2018-11-03T18:20:50.692Z,75.99
2018-11-03T18:24:54.597Z,75.36
2018-11-03T18:28:58.512Z,75.57
2018-11-03T18:33:02.524Z,74.86
2018-11-03T18:37:06.672Z,74.77
2018-11-03T18:41:12.802Z,75.49
2018-11-03T18:45:16.616Z,75.89
2018-11-03T18:49:20.479Z,76.34
2018-11-03T18:53:24.319Z,76.09
2018-11-03T18:57:29.031Z,76.06
2018-11-03T19:01:32.910Z,77.07
2018-11-03T19:05:36.802Z,77.41
2018-11-03T19:09:40.763Z,77.83
2018-11-03T19:13:44.940Z,78.65
2018-11-03T19:17:48.932Z,79.47
2018-11-03T19:21:52.795Z,79.69
2018-11-03T19:25:56.712Z,80.09
2018-11-03T19:30:01.082Z,80.49
2018-11-03T19:34:05.379Z,79.55
2018-11-03T19:38:09.563Z,79.41
2018-11-03T19:42:13.482Z,80.13
2018-11-03T19:46:17.372Z,79.88
2018-11-03T19:50:21.513Z,80.34
2018-11-03T19:54:25.484Z,79.57
2018-11-03T19:58:30.200Z,79.57
2018-11-03T20:02:34.180Z,79.24
2018-11-03T20:06:38.140Z,80.29
2018-11-03T20:10:42.045Z,81.37
2018-11-03T20:14:45.927Z,81.86
2018-11-03T20:18:49.791Z,82.24
2018-11-03T20:22:53.706Z,82.19
2018-11-03T20:26:58.597Z,83.56
2018-11-03T20:31:02.496Z,83.53
2018-11-03T20:35:07.061Z,83.46
2018-11-03T20:39:11.815Z,83.63
2018-11-03T20:43:17.004Z,83.76
2018-11-03T20:47:20.920Z,83.74
2018-11-03T20:51:24.841Z,83.54
2018-11-03T20:55:28.968Z,83.50
2018-11-03T20:59:32.839Z,84.88
2018-11-03T21:03:37.226Z,83.47
2018-11-03T21:07:41.964Z,83.60
2018-11-03T21:11:45.925Z,82.71
2018-11-03T21:15:49.809Z,83.56
2018-11-03T21:19:54.000Z,83.15
2018-11-03T21:23:58.505Z,83.28
2018-11-03T21:28:02.792Z,83.51
2018-11-03T21:32:07.312Z,83.56
2018-11-03T21:36:12.033Z,83.94
2018-11-03T21:40:15.915Z,85.73
2018-11-03T21:44:19.912Z,85.36
2018-11-03T21:48:23.835Z,85.55
2018-11-03T21:52:27.717Z,85.77
2018-11-03T21:56:31.629Z,86.12
2018-11-03T22:00:35.484Z,85.59
2018-11-03T22:04:39.452Z,85.02
2018-11-03T22:08:43.756Z,86.58
2018-11-03T22:12:47.623Z,86.22
2018-11-03T22:16:51.557Z,86.07
2018-11-03T22:20:56.082Z,87.23
2018-11-03T22:25:00.022Z,86.71
2018-11-03T22:29:05.183Z,86.67
2018-11-03T22:33:09.048Z,86.16
2018-11-03T22:37:12.937Z,86.66
2018-11-03T22:41:16.868Z,87.09
2018-11-03T22:45:20.783Z,86.99
2018-11-03T22:49:25.488Z,86.57
2018-11-03T22:53:30.389Z,86.44
2018-11-03T22:57:34.247Z,86.80
2018-11-03T23:01:38.410Z,87.00
2018-11-03T23:05:42.293Z,86.89
2018-11-03T23:09:46.571Z,86.83
2018-11-03T23:13:50.476Z,87.35
2018-11-03T23:17:54.467Z,88.09
2018-11-03T23:21:58.509Z,87.60
2018-11-03T23:26:02.596Z,87.75
2018-11-03T23:30:09.248Z,88.38
2018-11-03T23:34:12.888Z,88.86
2018-11-03T23:38:16.831Z,88.73
2018-11-03T23:42:21.016Z,88.06
2018-11-03T23:46:24.935Z,89.46
2018-11-03T23:50:29.167Z,89.35
2018-11-03T23:54:33.085Z,87.65
2018-11-03T23:58:36.968Z,88.48
